Time;durP1;ratioP1;P1;durP2;ratioP2;P2;SDS_P1;SDS_P2;PMS_P1;PMS_P2;Temp;Humidity;BMP_temperature;BMP_pressure;BME280_temperature;BME280_humidity;BME280_pressure;Samples;Min_cycle;Max_cycle;Signal;HPM_P1;HPM_P2
2023/01/17 00:01:49;;;;;;;2.63;2.43;;;5.70;99.90;;;;;;5060515;28;20804;-69
2023/01/17 00:09:55;;;;;;;2.47;1.97;;;5.70;99.90;;;;;;5059984;28;20427;-70
2023/01/17 00:12:23;;;;;;;3.20;2.30;;;5.70;99.90;;;;;;5059726;28;20463;-70
2023/01/17 00:14:54;;;;;;;3.07;2.10;;;5.60;99.90;;;;;;5059571;28;20549;-69
2023/01/17 00:17:21;;;;;;;2.40;2.20;;;5.60;99.90;;;;;;5059793;28;20450;-69
2023/01/17 01:34:43;;;;;;;3.03;2.20;;;5.10;99.90;;;;;;5063258;28;20613;-70
2023/01/17 01:37:11;;;;;;;6.30;2.23;;;5.10;99.90;;;;;;5062011;28;20487;-69
2023/01/17 01:39:38;;;;;;;3.00;2.03;;;5.00;99.90;;;;;;5061083;28;20465;-69
2023/01/17 01:42:15;;;;;;;4.03;2.33;;;5.00;99.90;;;;;;5059970;28;20489;-69
2023/01/17 01:44:44;;;;;;;2.70;2.30;;;5.00;99.90;;;;;;5059766;28;20450;-69
2023/01/17 01:47:15;;;;;;;2.30;2.10;;;5.00;99.90;;;;;;5059614;28;20509;-70
2023/01/17 01:49:43;;;;;;;3.27;3.00;;;5.00;99.90;;;;;;5060536;28;20546;-69
2023/01/17 01:52:12;;;;;;;2.50;2.30;;;5.00;99.90;;;;;;5060031;28;20772;-69
2023/01/17 01:54:43;;;;;;;2.60;2.40;;;4.90;99.90;;;;;;5060362;28;20478;-69
2023/01/17 01:57:16;;;;;;;2.60;1.90;;;4.90;99.90;;;;;;5060167;28;20447;-69
2023/01/17 01:59:48;;;;;;;2.40;2.10;;;5.00;99.90;;;;;;5060050;28;20444;-70
2023/01/17 02:02:15;;;;;;;2.60;2.40;;;4.90;99.90;;;;;;5059207;28;20533;-68
2023/01/17 02:04:43;;;;;;;2.43;2.10;;;5.00;99.90;;;;;;5059815;28;20959;-69
2023/01/17 02:07:15;;;;;;;2.60;2.40;;;4.90;99.90;;;;;;5059139;28;20469;-70
2023/01/17 02:09:42;;;;;;;2.77;2.10;;;4.90;99.90;;;;;;5062262;28;20499;-70
2023/01/17 02:12:09;;;;;;;5.23;2.97;;;4.90;99.90;;;;;;5063070;28;20978;-70
2023/01/17 02:14:36;;;;;;;2.20;2.00;;;4.90;99.90;;;;;;5061802;28;20936;-70
2023/01/17 02:17:21;;;;;;;2.40;2.20;;;4.90;99.90;;;;;;5062301;28;20522;-71
2023/01/17 02:20:22;;;;;;;2.40;2.20;;;4.90;99.90;;;;;;5062206;28;20443;-70
2023/01/17 02:23:22;;;;;;;2.30;2.10;;;4.90;99.90;;;;;;5061383;28;20486;-69
2023/01/17 02:26:18;;;;;;;2.77;2.33;;;4.90;99.90;;;;;;5061554;28;20518;-70
2023/01/17 02:29:05;;;;;;;3.60;2.43;;;4.90;99.90;;;;;;5062201;28;20454;-69
2023/01/17 02:31:39;;;;;;;3.10;2.50;;;4.80;99.90;;;;;;5058342;28;20506;-69
2023/01/17 02:34:12;;;;;;;3.87;2.50;;;4.80;99.90;;;;;;5058918;28;20453;-69
2023/01/17 02:36:44;;;;;;;3.00;2.70;;;4.80;99.90;;;;;;5059366;28;20443;-69
2023/01/17 02:39:17;;;;;;;2.53;2.33;;;4.80;99.90;;;;;;5059795;28;20443;-68
2023/01/17 02:41:47;;;;;;;2.57;2.37;;;4.70;99.90;;;;;;5058906;28;20460;-69
2023/01/17 02:44:18;;;;;;;2.57;2.37;;;4.70;99.90;;;;;;5058539;28;20443;-70
2023/01/17 02:46:48;;;;;;;3.37;2.60;;;4.70;99.90;;;;;;5058592;28;20449;-70
2023/01/17 02:49:16;;;;;;;2.80;2.60;;;4.70;99.90;;;;;;5058636;28;20455;-69
2023/01/17 02:52:04;;;;;;;3.20;2.60;;;4.70;99.90;;;;;;5059093;28;20489;-70
2023/01/17 02:54:49;;;;;;;3.67;2.60;;;4.80;99.90;;;;;;5058628;28;20512;-69
2023/01/17 02:57:37;;;;;;;3.70;2.37;;;4.80;99.90;;;;;;5058457;28;20486;-70
2023/01/17 03:00:13;;;;;;;2.70;2.10;;;4.90;99.90;;;;;;5058491;28;20448;-70
2023/01/17 03:02:52;;;;;;;2.90;2.60;;;4.90;99.90;;;;;;5058366;28;20439;-68
2023/01/17 03:05:25;;;;;;;3.17;2.70;;;5.00;99.90;;;;;;5058093;28;20444;-69
2023/01/17 03:07:53;;;;;;;5.20;2.70;;;5.00;99.90;;;;;;5060616;28;20448;-70
2023/01/17 03:10:20;;;;;;;2.83;2.60;;;5.00;99.90;;;;;;5059113;28;20455;-68
2023/01/17 03:12:47;;;;;;;3.70;3.23;;;5.10;99.90;;;;;;5058671;28;20474;-69
2023/01/17 03:15:16;;;;;;;3.17;2.20;;;5.10;99.90;;;;;;5058578;28;20541;-69
2023/01/17 03:17:48;;;;;;;4.27;2.80;;;5.10;99.90;;;;;;5059416;28;20756;-69
2023/01/17 03:20:15;;;;;;;4.10;2.50;;;5.10;99.90;;;;;;5058583;28;20449;-69
2023/01/17 03:22:42;;;;;;;2.93;2.60;;;5.00;99.90;;;;;;5058903;28;20462;-68
2023/01/17 03:25:09;;;;;;;2.50;2.13;;;5.00;99.90;;;;;;5058536;28;20467;-69
2023/01/17 03:27:36;;;;;;;4.47;2.73;;;4.90;99.90;;;;;;5058657;28;20528;-69
2023/01/17 03:30:03;;;;;;;3.60;2.67;;;4.90;99.90;;;;;;5059151;28;20466;-71
2023/01/17 03:32:30;;;;;;;2.40;2.20;;;4.90;99.90;;;;;;5060312;28;20542;-70
2023/01/17 03:34:58;;;;;;;2.53;2.30;;;4.90;99.90;;;;;;5062543;28;20532;-69
2023/01/17 03:37:25;;;;;;;3.00;2.47;;;4.90;99.90;;;;;;5062993;28;20821;-70
2023/01/17 03:39:52;;;;;;;2.93;2.37;;;4.90;99.90;;;;;;5061492;28;20548;-70
2023/01/17 03:42:19;;;;;;;3.00;2.57;;;4.90;99.90;;;;;;5061440;28;20876;-69
2023/01/17 03:44:46;;;;;;;3.27;2.40;;;4.90;99.90;;;;;;5062208;28;20523;-69
2023/01/17 03:47:12;;;;;;;3.60;2.27;;;4.90;99.90;;;;;;5062803;28;20530;-70
2023/01/17 03:49:40;;;;;;;2.07;1.90;;;5.00;99.90;;;;;;5061481;28;20455;-68
2023/01/17 03:52:08;;;;;;;2.47;2.30;;;5.00;99.90;;;;;;5060080;28;20653;-70
2023/01/17 03:54:35;;;;;;;2.70;2.20;;;5.00;99.90;;;;;;5058513;28;20535;-69
2023/01/17 03:57:02;;;;;;;3.83;2.50;;;5.00;99.90;;;;;;5057525;28;20466;-69
2023/01/17 03:59:28;;;;;;;3.13;2.70;;;5.00;99.90;;;;;;5058217;28;20454;-69
2023/01/17 04:01:55;;;;;;;2.77;2.13;;;5.10;99.90;;;;;;5057658;28;20809;-70
2023/01/17 04:04:22;;;;;;;2.80;1.90;;;5.10;99.90;;;;;;5058016;28;20451;-69
2023/01/17 04:06:49;;;;;;;4.63;2.40;;;5.10;99.90;;;;;;5058356;28;20936;-71
2023/01/17 04:09:17;;;;;;;2.83;2.00;;;5.10;99.90;;;;;;5060969;28;20493;-70
2023/01/17 04:11:44;;;;;;;2.27;2.07;;;5.20;99.90;;;;;;5060769;28;21017;-70
2023/01/17 04:14:11;;;;;;;1.87;1.67;;;5.20;99.90;;;;;;5061470;28;20498;-70
2023/01/17 04:16:38;;;;;;;1.87;1.57;;;5.20;99.90;;;;;;5061659;28;20546;-69
2023/01/17 04:19:05;;;;;;;1.80;1.70;;;5.20;99.90;;;;;;5061173;28;20466;-69
2023/01/17 04:21:32;;;;;;;2.47;2.10;;;5.30;99.90;;;;;;5060919;28;20940;-69
2023/01/17 04:23:59;;;;;;;1.50;1.40;;;5.30;99.90;;;;;;5061673;28;20527;-69
2023/01/17 04:26:27;;;;;;;2.67;1.80;;;5.40;99.90;;;;;;5061603;28;20958;-69
2023/01/17 04:28:54;;;;;;;1.50;1.37;;;5.40;99.90;;;;;;5062206;28;20501;-69
2023/01/17 04:31:21;;;;;;;3.80;1.80;;;5.40;99.90;;;;;;5064163;28;20458;-69
2023/01/17 04:33:48;;;;;;;2.87;1.80;;;5.40;99.90;;;;;;5068414;28;20462;-69
2023/01/17 04:36:14;;;;;;;1.87;1.50;;;5.40;99.90;;;;;;5068948;28;20522;-70
2023/01/17 04:38:41;;;;;;;1.90;1.53;;;5.30;99.90;;;;;;5067765;28;20801;-69
2023/01/17 04:41:08;;;;;;;3.00;2.50;;;5.30;99.90;;;;;;5065312;28;20459;-69
2023/01/17 04:43:36;;;;;;;1.60;1.30;;;5.30;99.90;;;;;;5064275;28;20495;-70
2023/01/17 04:46:04;;;;;;;2.17;1.47;;;5.20;99.90;;;;;;5066118;28;20538;-69
2023/01/17 04:48:32;;;;;;;1.80;1.53;;;5.20;99.90;;;;;;5064118;28;20481;-70
2023/01/17 04:51:03;;;;;;;1.90;1.80;;;5.20;99.90;;;;;;5063311;28;20462;-69
2023/01/17 04:53:30;;;;;;;1.67;1.53;;;5.20;99.90;;;;;;5062784;28;20475;-69
2023/01/17 04:55:56;;;;;;;1.60;1.30;;;5.30;99.90;;;;;;5064662;28;20498;-70
2023/01/17 04:58:23;;;;;;;1.87;1.40;;;5.30;99.90;;;;;;5064633;28;20459;-70
2023/01/17 05:00:52;;;;;;;2.27;1.37;;;5.30;99.90;;;;;;5063844;28;20461;-69
2023/01/17 05:03:19;;;;;;;1.70;1.40;;;5.30;99.90;;;;;;5064301;28;20539;-69
2023/01/17 05:05:46;;;;;;;2.27;1.40;;;5.20;99.90;;;;;;5064580;28;20538;-71
2023/01/17 05:08:13;;;;;;;1.60;1.50;;;5.20;99.90;;;;;;5064729;28;20494;-70
2023/01/17 05:10:40;;;;;;;1.70;1.30;;;5.20;99.90;;;;;;5064513;28;20820;-70
2023/01/17 05:13:06;;;;;;;1.30;1.17;;;5.10;99.90;;;;;;5063143;28;20550;-70
2023/01/17 05:15:33;;;;;;;1.40;1.30;;;5.20;99.90;;;;;;5063504;28;20451;-70
2023/01/17 05:18:06;;;;;;;2.00;1.30;;;5.20;99.90;;;;;;5063327;28;20465;-69
2023/01/17 05:20:32;;;;;;;1.40;1.30;;;5.30;99.90;;;;;;5063574;28;20435;-70
2023/01/17 05:22:59;;;;;;;1.60;1.40;;;5.30;99.90;;;;;;5063495;28;20519;-70
2023/01/17 05:25:29;;;;;;;1.87;1.33;;;5.30;99.90;;;;;;5064436;28;20784;-69
2023/01/17 05:27:58;;;;;;;1.40;1.30;;;5.20;99.90;;;;;;5064704;28;20491;-70
2023/01/17 05:30:26;;;;;;;1.53;1.43;;;5.20;99.90;;;;;;5064778;28;20524;-70
2023/01/17 05:32:54;;;;;;;1.40;1.30;;;5.20;99.90;;;;;;5064913;28;20483;-70
2023/01/17 05:35:24;;;;;;;1.90;1.60;;;5.20;99.90;;;;;;5064684;28;20538;-70
2023/01/17 05:37:51;;;;;;;1.83;1.73;;;5.20;99.90;;;;;;5064289;28;20459;-69
2023/01/17 05:40:19;;;;;;;1.83;1.70;;;5.20;99.90;;;;;;5064680;28;20466;-70
2023/01/17 05:42:46;;;;;;;4.27;1.50;;;5.20;99.90;;;;;;5063719;28;20489;-69
2023/01/17 05:45:15;;;;;;;1.90;1.57;;;5.20;99.90;;;;;;5063077;28;20455;-71
2023/01/17 05:47:42;;;;;;;1.67;1.57;;;5.30;99.90;;;;;;5063388;28;20455;-70
2023/01/17 05:50:11;;;;;;;1.63;1.53;;;5.30;99.90;;;;;;5063047;28;20459;-69
2023/01/17 05:52:40;;;;;;;1.83;1.73;;;5.30;99.90;;;;;;5062222;28;20510;-70
2023/01/17 05:55:07;;;;;;;1.70;1.60;;;5.30;99.90;;;;;;5062189;28;20459;-69
2023/01/17 05:57:34;;;;;;;1.60;1.47;;;5.30;99.90;;;;;;5065286;28;20547;-71
2023/01/17 06:00:01;;;;;;;2.20;1.60;;;5.40;99.90;;;;;;5063519;28;20518;-69
2023/01/17 06:02:28;;;;;;;2.00;1.50;;;5.40;99.90;;;;;;5061956;28;20534;-70
2023/01/17 06:04:55;;;;;;;1.80;1.43;;;5.40;99.90;;;;;;5060222;28;20455;-70
2023/01/17 06:07:22;;;;;;;1.60;1.50;;;5.50;99.90;;;;;;5058174;28;20469;-70
2023/01/17 06:09:50;;;;;;;1.60;1.40;;;5.40;99.90;;;;;;5063846;28;20923;-69
2023/01/17 06:12:17;;;;;;;1.60;1.50;;;5.50;99.90;;;;;;5062631;28;20470;-70
2023/01/17 06:14:44;;;;;;;3.90;1.63;;;5.50;99.90;;;;;;5061293;28;20519;-70
2023/01/17 06:17:10;;;;;;;1.83;1.67;;;5.50;99.90;;;;;;5060401;28;20490;-68
2023/01/17 06:19:37;;;;;;;1.90;1.70;;;5.50;99.90;;;;;;5060765;28;20459;-71
2023/01/17 06:22:04;;;;;;;1.77;1.67;;;5.50;99.90;;;;;;5061133;28;20859;-69
2023/01/17 06:24:32;;;;;;;2.00;1.80;;;5.50;99.90;;;;;;5060599;28;20466;-69
2023/01/17 06:27:00;;;;;;;1.70;1.60;;;5.50;99.90;;;;;;5059907;28;20546;-69
2023/01/17 06:29:27;;;;;;;4.77;1.90;;;5.50;99.90;;;;;;5058908;28;20489;-70
2023/01/17 06:31:54;;;;;;;2.00;1.80;;;5.40;99.90;;;;;;5058909;28;20491;-70
2023/01/17 06:34:21;;;;;;;1.67;1.57;;;5.40;99.90;;;;;;5059399;28;20551;-69
2023/01/17 06:36:48;;;;;;;2.23;2.00;;;5.40;99.90;;;;;;5058584;28;20459;-69
2023/01/17 06:39:15;;;;;;;1.70;1.60;;;5.40;99.90;;;;;;5059164;28;20451;-70
2023/01/17 06:41:41;;;;;;;2.17;1.97;;;5.40;99.90;;;;;;5059442;28;20537;-70
2023/01/17 06:44:10;;;;;;;1.70;1.60;;;5.40;99.90;;;;;;5060297;28;20490;-70
2023/01/17 06:46:37;;;;;;;3.20;1.80;;;5.40;99.90;;;;;;5058265;28;20459;-70
2023/01/17 06:49:04;;;;;;;1.83;1.73;;;5.30;99.90;;;;;;5059074;28;20459;-70
2023/01/17 06:51:31;;;;;;;2.80;1.73;;;5.40;99.90;;;;;;5060394;28;20473;-70
2023/01/17 06:53:58;;;;;;;2.03;1.83;;;5.40;99.90;;;;;;5058870;28;20479;-70
2023/01/17 06:56:24;;;;;;;2.13;1.93;;;5.30;99.90;;;;;;5059753;28;20836;-71
2023/01/17 06:58:51;;;;;;;3.03;1.93;;;5.30;99.90;;;;;;5059251;28;20491;-71
2023/01/17 07:01:20;;;;;;;2.00;1.80;;;5.30;99.90;;;;;;5058496;28;20554;-70
2023/01/17 07:03:46;;;;;;;4.13;1.93;;;5.30;99.90;;;;;;5057293;28;20927;-70
2023/01/17 07:06:13;;;;;;;3.70;2.40;;;5.20;99.90;;;;;;5057455;28;20454;-70
2023/01/17 07:08:40;;;;;;;2.40;2.20;;;5.20;99.90;;;;;;5056835;28;20986;-70
2023/01/17 07:11:08;;;;;;;2.60;2.10;;;5.30;99.90;;;;;;5057437;28;20459;-70
2023/01/17 07:13:35;;;;;;;2.60;2.40;;;5.30;99.90;;;;;;5057272;28;20485;-70
2023/01/17 07:16:03;;;;;;;2.40;2.20;;;5.20;99.90;;;;;;5057149;28;20938;-70
2023/01/17 07:18:32;;;;;;;2.50;2.10;;;5.30;99.90;;;;;;5057538;28;20534;-70
2023/01/17 07:20:59;;;;;;;2.40;2.00;;;5.30;99.90;;;;;;5057677;28;20469;-69
2023/01/17 07:23:26;;;;;;;2.90;2.53;;;5.30;99.90;;;;;;5057476;28;20458;-69
2023/01/17 07:25:54;;;;;;;3.20;2.23;;;5.30;99.90;;;;;;5057322;28;20550;-68
2023/01/17 07:28:21;;;;;;;2.67;2.43;;;5.30;99.90;;;;;;5057986;28;20469;-69
2023/01/17 07:30:48;;;;;;;2.77;2.57;;;5.30;99.90;;;;;;5058081;28;20465;-69
2023/01/17 07:33:15;;;;;;;2.63;2.43;;;5.30;99.90;;;;;;5058716;28;20542;-70
2023/01/17 07:35:44;;;;;;;2.53;2.33;;;5.30;99.90;;;;;;5058161;28;20485;-69
2023/01/17 07:38:14;;;;;;;2.20;2.00;;;5.30;99.90;;;;;;5058234;28;20473;-70
2023/01/17 07:40:41;;;;;;;2.30;1.93;;;5.30;99.90;;;;;;5061061;28;20443;-69
2023/01/17 07:43:12;;;;;;;2.90;2.60;;;5.30;99.90;;;;;;5062315;28;20546;-70
2023/01/17 07:45:42;;;;;;;2.40;2.20;;;5.30;99.90;;;;;;5062426;28;20951;-70
2023/01/17 07:48:09;;;;;;;2.53;2.27;;;5.30;99.90;;;;;;5061357;28;20459;-70
2023/01/17 07:50:35;;;;;;;2.43;2.23;;;5.20;99.90;;;;;;5060543;28;20532;-70
2023/01/17 07:53:04;;;;;;;2.53;2.33;;;5.30;99.90;;;;;;5060923;28;20556;-70
2023/01/17 07:55:31;;;;;;;2.30;2.10;;;5.30;99.90;;;;;;5061959;28;20459;-70
2023/01/17 07:57:58;;;;;;;2.60;2.40;;;5.30;99.90;;;;;;5063025;28;20912;-69
2023/01/17 08:00:26;;;;;;;2.47;2.10;;;5.30;99.90;;;;;;5061550;28;20841;-69
2023/01/17 08:02:56;;;;;;;3.10;2.63;;;5.30;99.90;;;;;;5061816;28;20545;-69
2023/01/17 08:05:23;;;;;;;2.30;2.10;;;5.30;99.90;;;;;;5061851;28;20464;-70
2023/01/17 08:07:50;;;;;;;2.47;2.27;;;5.30;99.90;;;;;;5062271;28;20459;-69
2023/01/17 08:10:19;;;;;;;2.30;2.10;;;5.20;99.90;;;;;;5062008;28;20533;-70
2023/01/17 08:12:47;;;;;;;1.83;1.70;;;5.20;99.90;;;;;;5061187;28;20483;-70
2023/01/17 08:15:14;;;;;;;2.30;2.10;;;5.30;99.90;;;;;;5060731;28;20458;-70
2023/01/17 08:17:45;;;;;;;2.57;2.37;;;5.30;99.90;;;;;;5060723;28;20463;-70
2023/01/17 08:20:12;;;;;;;3.03;2.73;;;5.30;99.90;;;;;;5078702;28;20454;-70
2023/01/17 08:22:39;;;;;;;1.80;1.60;;;5.30;99.90;;;;;;5080842;28;20442;-69
2023/01/17 08:25:07;;;;;;;2.17;1.97;;;5.30;99.90;;;;;;5080242;28;20545;-69
2023/01/17 08:27:35;;;;;;;3.83;2.50;;;5.20;99.90;;;;;;5080343;28;20518;-70
2023/01/17 08:30:02;;;;;;;2.60;2.40;;;5.30;99.90;;;;;;5079929;28;20465;-69
2023/01/17 08:32:29;;;;;;;2.13;1.90;;;5.30;99.90;;;;;;5080164;28;20863;-70
2023/01/17 08:34:56;;;;;;;2.23;2.03;;;5.30;99.90;;;;;;5080464;28;20939;-71
2023/01/17 08:37:23;;;;;;;2.60;2.03;;;5.40;99.90;;;;;;5080313;28;20454;-69
2023/01/17 08:39:50;;;;;;;1.70;1.60;;;5.30;99.90;;;;;;5079816;28;20450;-70
2023/01/17 08:42:17;;;;;;;2.00;1.80;;;5.30;99.90;;;;;;5080029;28;20486;-70
2023/01/17 08:44:46;;;;;;;2.50;1.83;;;5.30;99.90;;;;;;5080209;28;20445;-71
2023/01/17 08:47:13;;;;;;;2.03;1.70;;;5.40;99.90;;;;;;5080323;28;20450;-69
2023/01/17 08:49:39;;;;;;;2.10;1.97;;;5.40;99.90;;;;;;5080810;28;20466;-69
2023/01/17 08:52:07;;;;;;;2.50;2.30;;;5.40;99.90;;;;;;5080187;28;20460;-70
2023/01/17 08:54:34;;;;;;;1.60;1.50;;;5.40;99.90;;;;;;5079466;28;20478;-70
2023/01/17 08:57:02;;;;;;;2.20;1.70;;;5.40;99.90;;;;;;5080360;28;20457;-70
2023/01/17 08:59:28;;;;;;;1.93;1.47;;;5.50;99.90;;;;;;5062163;28;20478;-70
2023/01/17 09:01:59;;;;;;;2.77;2.27;;;5.50;99.90;;;;;;5060772;28;20455;-70
2023/01/17 09:04:26;;;;;;;1.57;1.30;;;5.50;99.90;;;;;;5062134;28;20446;-70
2023/01/17 09:06:53;;;;;;;1.93;1.80;;;5.50;99.90;;;;;;5060432;28;20546;-70
2023/01/17 09:09:20;;;;;;;2.10;1.90;;;5.50;99.90;;;;;;5061743;28;20552;-70
2023/01/17 09:11:47;;;;;;;2.47;1.60;;;5.60;99.90;;;;;;5059856;28;20475;-70
2023/01/17 09:14:14;;;;;;;1.87;1.60;;;5.60;99.90;;;;;;5060361;28;20507;-69
2023/01/17 09:16:41;;;;;;;1.67;1.57;;;5.70;99.90;;;;;;5059528;28;20781;-70
2023/01/17 09:19:09;;;;;;;2.00;1.53;;;5.70;99.90;;;;;;5059225;28;20486;-70
2023/01/17 09:21:36;;;;;;;1.50;1.40;;;5.70;99.90;;;;;;5059388;28;20538;-71
2023/01/17 09:24:03;;;;;;;1.60;1.30;;;5.70;99.90;;;;;;5059937;28;20534;-70
2023/01/17 09:26:30;;;;;;;1.40;1.17;;;5.70;99.90;;;;;;5059513;28;20542;-69
2023/01/17 09:28:57;;;;;;;1.50;1.40;;;5.90;99.90;;;;;;5059136;28;20541;-70
2023/01/17 09:31:25;;;;;;;1.40;1.20;;;5.90;99.90;;;;;;5060086;28;20486;-70
2023/01/17 09:33:55;;;;;;;1.53;1.43;;;5.90;99.90;;;;;;5059160;28;20479;-70
2023/01/17 09:36:27;;;;;;;1.80;1.30;;;5.90;99.90;;;;;;5058989;28;20454;-70
2023/01/17 09:38:56;;;;;;;1.50;1.23;;;5.90;99.90;;;;;;5059569;28;20478;-70
2023/01/17 09:41:27;;;;;;;2.63;1.30;;;5.90;99.90;;;;;;5061104;28;20465;-70
2023/01/17 09:43:59;;;;;;;1.50;1.10;;;5.90;99.90;;;;;;5060394;28;20494;-70
2023/01/17 09:46:29;;;;;;;1.60;1.30;;;5.90;99.90;;;;;;5060798;28;20482;-71
2023/01/17 09:49:02;;;;;;;1.37;1.20;;;5.80;99.90;;;;;;5061054;28;20487;-69
2023/01/17 09:51:31;;;;;;;2.10;1.40;;;5.70;99.90;;;;;;5058312;28;20526;-70
2023/01/17 09:53:59;;;;;;;1.40;1.20;;;5.60;99.90;;;;;;5059237;28;20539;-71
2023/01/17 09:56:31;;;;;;;1.20;0.90;;;5.60;99.90;;;;;;5059337;28;20486;-70
2023/01/17 09:59:22;;;;;;;1.37;1.23;;;5.50;99.90;;;;;;5060103;28;20440;-71
2023/01/17 10:01:57;;;;;;;1.43;1.20;;;5.50;99.90;;;;;;5059520;28;20462;-72
2023/01/17 10:04:47;;;;;;;2.17;1.10;;;5.50;99.90;;;;;;5059240;28;20506;-70
2023/01/17 10:07:27;;;;;;;1.23;0.90;;;5.50;99.90;;;;;;5059447;28;20519;-69
2023/01/17 10:10:07;;;;;;;1.63;1.30;;;5.50;99.90;;;;;;5059404;28;20453;-70
2023/01/17 10:12:43;;;;;;;2.27;1.17;;;5.40;99.90;;;;;;5058829;28;20534;-71
2023/01/17 10:15:36;;;;;;;2.20;1.40;;;5.40;99.90;;;;;;5059714;28;20471;-70
2023/01/17 10:18:18;;;;;;;1.40;1.10;;;5.50;99.90;;;;;;5059044;28;20514;-70
2023/01/17 10:20:53;;;;;;;3.20;1.30;;;5.40;99.90;;;;;;5058818;28;20439;-70
2023/01/17 10:23:44;;;;;;;1.50;1.10;;;5.40;99.90;;;;;;5059618;28;20439;-70
2023/01/17 10:26:16;;;;;;;1.20;1.10;;;5.30;99.90;;;;;;5059949;28;20450;-70
2023/01/17 10:28:47;;;;;;;1.33;0.93;;;5.40;99.90;;;;;;5061237;28;20523;-69
2023/01/17 10:31:20;;;;;;;1.20;0.97;;;5.40;99.90;;;;;;5061519;28;20530;-69
2023/01/17 10:33:51;;;;;;;1.67;1.20;;;5.40;99.90;;;;;;5060090;28;20566;-70
2023/01/17 10:36:21;;;;;;;1.40;1.00;;;5.30;99.90;;;;;;5059107;28;20459;-70
2023/01/17 10:38:52;;;;;;;1.23;1.00;;;5.20;99.90;;;;;;5058007;28;20435;-71
2023/01/17 10:41:25;;;;;;;1.70;1.47;;;5.10;99.90;;;;;;5059518;28;20534;-70
2023/01/17 10:44:06;;;;;;;1.50;1.27;;;5.00;99.90;;;;;;5060304;28;20967;-71
2023/01/17 10:46:38;;;;;;;2.00;1.27;;;4.90;99.90;;;;;;5060944;28;20443;-70
2023/01/17 10:49:12;;;;;;;1.40;1.13;;;4.90;99.90;;;;;;5062010;28;20729;-70
2023/01/17 10:52:03;;;;;;;1.73;1.30;;;4.90;99.90;;;;;;5062021;28;20474;-69
2023/01/17 10:54:50;;;;;;;2.23;1.30;;;4.90;99.90;;;;;;5062368;28;20468;-70
2023/01/17 10:57:21;;;;;;;1.43;1.10;;;5.00;99.90;;;;;;5061478;28;20502;-70
2023/01/17 10:59:48;;;;;;;1.30;1.20;;;5.00;99.90;;;;;;5061699;28;20959;-69
2023/01/17 11:02:21;;;;;;;1.20;0.90;;;5.00;99.90;;;;;;5059224;28;20466;-69
2023/01/17 11:04:53;;;;;;;2.50;1.30;;;5.00;99.90;;;;;;5059513;28;20935;-71
2023/01/17 11:07:21;;;;;;;4.90;1.20;;;5.10;99.90;;;;;;5059070;28;20589;-70
2023/01/17 11:09:51;;;;;;;3.33;1.00;;;5.00;99.90;;;;;;5060012;28;20523;-70
2023/01/17 11:12:20;;;;;;;1.90;1.20;;;5.10;99.90;;;;;;5059683;28;20741;-71
2023/01/17 11:15:03;;;;;;;1.30;1.10;;;5.00;99.90;;;;;;5057988;28;20493;-70
2023/01/17 11:17:31;;;;;;;1.20;0.93;;;4.90;99.90;;;;;;5060889;28;20503;-70
2023/01/17 11:20:18;;;;;;;1.40;1.20;;;4.80;99.90;;;;;;5062371;28;20465;-70
2023/01/17 11:23:02;;;;;;;1.90;1.33;;;4.70;99.90;;;;;;5063282;28;20454;-70
2023/01/17 11:25:33;;;;;;;2.23;1.10;;;4.70;99.90;;;;;;5062731;28;20777;-69
2023/01/17 11:28:03;;;;;;;3.20;1.13;;;4.70;99.90;;;;;;5064219;28;20439;-70
2023/01/17 11:30:30;;;;;;;1.40;1.00;;;4.70;99.90;;;;;;5064718;28;20473;-71
2023/01/17 11:32:58;;;;;;;1.20;0.93;;;4.70;99.90;;;;;;5064193;28;20470;-70
2023/01/17 11:35:27;;;;;;;2.13;0.90;;;4.70;99.90;;;;;;5062849;28;20565;-70
2023/01/17 11:38:05;;;;;;;1.50;0.90;;;4.60;99.90;;;;;;5061964;28;20468;-70
2023/01/17 11:40:41;;;;;;;1.50;1.00;;;4.40;99.90;;;;;;5062886;28;20544;-70
2023/01/17 11:43:21;;;;;;;1.60;1.20;;;4.20;99.90;;;;;;5063354;28;20569;-71
2023/01/17 11:46:02;;;;;;;3.40;1.27;;;4.00;99.90;;;;;;5063366;28;20439;-70
2023/01/17 11:48:35;;;;;;;1.30;1.17;;;3.90;99.90;;;;;;5062288;28;20538;-70
2023/01/17 11:51:04;;;;;;;2.10;1.60;;;3.50;99.90;;;;;;5058131;28;20538;-70
2023/01/17 11:53:33;;;;;;;2.60;1.40;;;3.20;99.90;;;;;;5057189;28;20463;-69
2023/01/17 11:56:06;;;;;;;1.83;1.47;;;3.10;99.90;;;;;;5058261;28;20459;-71
2023/01/17 11:58:36;;;;;;;2.17;1.97;;;3.10;99.90;;;;;;5057066;28;20443;-71
2023/01/17 12:01:29;;;;;;;2.10;1.40;;;3.10;99.90;;;;;;5056847;28;20953;-70
2023/01/17 12:04:18;;;;;;;2.10;1.90;;;3.20;99.90;;;;;;5057513;28;20546;-70
2023/01/17 12:06:52;;;;;;;2.57;1.70;;;3.40;99.90;;;;;;5057376;28;20512;-70
2023/01/17 12:09:26;;;;;;;4.70;2.03;;;3.50;99.90;;;;;;5057108;28;20530;-73
2023/01/17 12:14:59;;;;;;;3.10;2.43;;;3.80;99.90;;;;;;5056929;28;20946;-71
2023/01/17 12:17:39;;;;;;;1.80;1.53;;;4.00;99.90;;;;;;5056883;28;20542;-71
2023/01/17 12:20:17;;;;;;;2.20;1.60;;;4.20;99.90;;;;;;5056781;28;20905;-71
2023/01/17 12:23:12;;;;;;;3.03;1.93;;;4.30;99.90;;;;;;5057328;28;20534;-73
2023/01/17 12:25:54;;;;;;;4.13;1.70;;;4.30;99.90;;;;;;5056820;28;20839;-71
2023/01/17 12:28:56;;;;;;;2.97;2.20;;;4.40;99.90;;;;;;5056088;28;20490;-70
2023/01/17 12:31:32;;;;;;;2.63;2.03;;;4.60;99.90;;;;;;5056724;28;20457;-70
2023/01/17 12:34:09;;;;;;;10.63;2.27;;;4.80;99.90;;;;;;5056789;28;20490;-71
2023/01/17 12:36:43;;;;;;;4.90;1.93;;;4.80;99.90;;;;;;5057152;28;20450;-71
2023/01/17 12:39:13;;;;;;;2.37;1.70;;;4.80;99.90;;;;;;5062777;28;20458;-71
2023/01/17 12:41:53;;;;;;;1.90;1.80;;;4.60;99.90;;;;;;5077133;28;20760;-70
2023/01/17 12:44:29;;;;;;;2.40;1.60;;;4.60;99.90;;;;;;5078595;28;20434;-71
2023/01/17 12:47:02;;;;;;;2.13;1.93;;;4.60;99.90;;;;;;5080152;28;20496;-71
2023/01/17 12:49:36;;;;;;;1.90;1.70;;;4.60;99.90;;;;;;5063527;28;20545;-72
2023/01/17 12:52:08;;;;;;;5.60;1.93;;;4.60;99.90;;;;;;5059466;28;20454;-71
2023/01/17 12:54:39;;;;;;;2.63;1.63;;;4.60;99.90;;;;;;5057998;28;20468;-71
2023/01/17 12:57:13;;;;;;;4.97;1.60;;;4.60;99.90;;;;;;5057572;28;20837;-70
2023/01/17 12:59:47;;;;;;;2.40;1.60;;;4.60;99.90;;;;;;5057425;28;20455;-71
2023/01/17 13:02:22;;;;;;;1.83;1.67;;;4.60;99.90;;;;;;5056613;28;20438;-70
2023/01/17 13:04:57;;;;;;;3.90;1.80;;;4.60;99.90;;;;;;5057158;28;20449;-70
2023/01/17 13:07:32;;;;;;;2.03;1.27;;;4.60;99.90;;;;;;5056453;28;20445;-72
2023/01/17 13:10:04;;;;;;;2.43;1.40;;;4.70;99.90;;;;;;5056510;28;20508;-73
2023/01/17 13:12:33;;;;;;;2.13;1.37;;;4.70;99.90;;;;;;5056332;28;20785;-72
2023/01/17 13:15:05;;;;;;;3.30;1.57;;;4.70;99.90;;;;;;5056035;28;20490;-72
2023/01/17 13:17:39;;;;;;;4.10;1.67;;;4.70;99.90;;;;;;5056017;28;20440;-72
2023/01/17 13:20:16;;;;;;;2.23;1.30;;;4.80;99.90;;;;;;5055778;28;20530;-71
2023/01/17 13:22:44;;;;;;;4.63;1.70;;;5.00;99.90;;;;;;5055265;28;20454;-71
2023/01/17 13:25:28;;;;;;;2.13;1.67;;;5.10;99.90;;;;;;5055228;28;20458;-72
2023/01/17 13:28:08;;;;;;;3.90;1.53;;;5.10;99.90;;;;;;5055689;28;20451;-71
2023/01/17 13:30:57;;;;;;;2.40;1.77;;;5.40;99.90;;;;;;5055915;28;20444;-72
2023/01/17 13:33:34;;;;;;;2.70;1.67;;;6.20;99.90;;;;;;5055524;28;20444;-71
2023/01/17 13:36:14;;;;;;;3.80;1.20;;;7.20;99.90;;;;;;5055591;28;20477;-72
2023/01/17 13:39:00;;;;;;;2.57;1.03;;;8.00;99.90;;;;;;5055731;28;20453;-71
2023/01/17 13:41:44;;;;;;;3.13;1.03;;;8.50;99.90;;;;;;5055966;28;20443;-70
2023/01/17 13:44:23;;;;;;;2.97;1.17;;;8.90;99.90;;;;;;5055739;28;20863;-70
2023/01/17 13:47:00;;;;;;;2.30;1.40;;;8.60;99.90;;;;;;5055529;28;20884;-71
2023/01/17 13:49:55;;;;;;;2.17;1.63;;;7.80;99.90;;;;;;5055450;28;20450;-72
2023/01/17 13:52:31;;;;;;;1.60;1.13;;;7.00;99.90;;;;;;5042509;28;20466;-72
2023/01/17 13:55:00;;;;;;;3.47;1.67;;;6.60;99.90;;;;;;5055515;28;20470;-71
2023/01/17 13:57:46;;;;;;;2.00;1.30;;;6.30;99.90;;;;;;5055131;28;20459;-70
2023/01/17 14:00:58;;;;;;;1.60;1.40;;;6.10;99.90;;;;;;5055258;28;20525;-71
2023/01/17 14:04:06;;;;;;;2.20;1.07;;;6.00;99.90;;;;;;5055054;28;20431;-71
2023/01/17 14:06:43;;;;;;;3.40;1.30;;;6.80;99.90;;;;;;4994171;28;20849;-71
2023/01/17 14:09:22;;;;;;;3.93;1.20;;;7.80;99.90;;;;;;5049662;28;20455;-71
2023/01/17 14:12:22;;;;;;;3.13;1.43;;;8.50;99.90;;;;;;5056652;28;20565;-71
2023/01/17 14:14:54;;;;;;;2.60;1.10;;;8.90;99.90;;;;;;5062950;28;20574;-71
2023/01/17 14:17:46;;;;;;;2.70;1.53;;;9.30;99.90;;;;;;5071765;28;20462;-70
2023/01/17 14:20:39;;;;;;;1.87;1.20;;;9.70;99.90;;;;;;5055411;28;20530;-71
2023/01/17 14:23:25;;;;;;;2.47;1.40;;;9.80;99.90;;;;;;5054974;28;20443;-71
2023/01/17 14:25:53;;;;;;;2.07;1.17;;;9.10;99.90;;;;;;5055012;28;20439;-71
2023/01/17 14:28:29;;;;;;;4.43;1.60;;;8.30;99.90;;;;;;5055091;28;20465;-71
2023/01/17 14:30:57;;;;;;;2.97;1.30;;;7.50;99.90;;;;;;5054903;28;20449;-71
2023/01/17 14:33:28;;;;;;;2.90;1.10;;;6.90;99.90;;;;;;5055013;28;20469;-72
2023/01/17 14:36:00;;;;;;;2.00;1.43;;;6.60;99.90;;;;;;5055073;28;20478;-72
2023/01/17 14:38:30;;;;;;;3.00;1.87;;;6.30;99.90;;;;;;5055301;28;20536;-71
2023/01/17 14:41:00;;;;;;;6.23;1.90;;;6.10;99.90;;;;;;5054763;28;20455;-71
2023/01/17 14:43:31;;;;;;;4.00;1.53;;;5.90;99.90;;;;;;5054784;28;20483;-72
2023/01/17 14:46:01;;;;;;;2.63;1.63;;;5.80;99.90;;;;;;5054605;28;20530;-71